sensor_id;sensor_type;location;lat;lon;timestamp;temperature;humidity
65536;DHT22;52145;49.342;9.116;2023-03-01T00:02:02;-0.10;99.90
65536;DHT22;52145;49.342;9.116;2023-03-01T00:04:28;0.00;99.90
65536;DHT22;52145;49.342;9.116;2023-03-01T00:06:54;-0.10;99.90
65536;DHT22;52145;49.342;9.116;2023-03-01T00:09:19;-0.10;99.90
65536;DHT22;52145;49.342;9.116;2023-03-01T00:11:45;-0.10;99.90
65536;DHT22;52145;49.342;9.116;2023-03-01T00:14:11;-0.10;99.90
65536;DHT22;52145;49.342;9.116;2023-03-01T00:16:40;-0.10;99.90
65536;DHT22;52145;49.342;9.116;2023-03-01T00:19:06;0.00;99.90
65536;DHT22;52145;49.342;9.116;2023-03-01T00:21:32;0.00;99.90
65536;DHT22;52145;49.342;9.116;2023-03-01T00:24:00;-0.10;99.90
65536;DHT22;52145;49.342;9.116;2023-03-01T00:26:26;0.00;99.90
65536;DHT22;52145;49.342;9.116;2023-03-01T00:28:53;0.00;99.90
65536;DHT22;52145;49.342;9.116;2023-03-01T00:31:22;0.00;99.90
65536;DHT22;52145;49.342;9.116;2023-03-01T00:33:52;0.00;99.90
65536;DHT22;52145;49.342;9.116;2023-03-01T00:36:18;0.00;99.90
65536;DHT22;52145;49.342;9.116;2023-03-01T00:38:45;0.00;99.90
65536;DHT22;52145;49.342;9.116;2023-03-01T00:41:13;0.10;99.90
65536;DHT22;52145;49.342;9.116;2023-03-01T00:43:41;0.10;99.90
65536;DHT22;52145;49.342;9.116;2023-03-01T00:46:12;0.00;99.90
65536;DHT22;52145;49.342;9.116;2023-03-01T00:48:38;-0.10;99.90
65536;DHT22;52145;49.342;9.116;2023-03-01T00:51:08;-0.10;99.90
65536;DHT22;52145;49.342;9.116;2023-03-01T00:53:34;-0.20;99.90
65536;DHT22;52145;49.342;9.116;2023-03-01T00:56:00;-0.20;99.90
65536;DHT22;52145;49.342;9.116;2023-03-01T00:58:26;-0.10;99.90
65536;DHT22;52145;49.342;9.116;2023-03-01T01:00:51;-0.20;99.90
65536;DHT22;52145;49.342;9.116;2023-03-01T01:03:20;-0.10;99.90
65536;DHT22;52145;49.342;9.116;2023-03-01T01:05:45;-0.20;99.90
65536;DHT22;52145;49.342;9.116;2023-03-01T01:08:11;-0.20;99.90
65536;DHT22;52145;49.342;9.116;2023-03-01T01:10:37;-0.30;99.90
65536;DHT22;52145;49.342;9.116;2023-03-01T01:13:03;-0.20;99.90
65536;DHT22;52145;49.342;9.116;2023-03-01T01:15:31;-0.20;99.90
65536;DHT22;52145;49.342;9.116;2023-03-01T01:17:58;-0.30;99.90
65536;DHT22;52145;49.342;9.116;2023-03-01T01:20:23;-0.30;99.90
65536;DHT22;52145;49.342;9.116;2023-03-01T01:22:49;-0.20;99.90
65536;DHT22;52145;49.342;9.116;2023-03-01T01:25:14;-0.20;99.90
65536;DHT22;52145;49.342;9.116;2023-03-01T01:27:40;-0.20;99.90
65536;DHT22;52145;49.342;9.116;2023-03-01T01:30:06;-0.20;99.90
65536;DHT22;52145;49.342;9.116;2023-03-01T01:32:31;-0.30;99.90
65536;DHT22;52145;49.342;9.116;2023-03-01T01:34:57;-0.30;99.90
65536;DHT22;52145;49.342;9.116;2023-03-01T01:37:22;-0.30;99.90
65536;DHT22;52145;49.342;9.116;2023-03-01T01:39:48;-0.30;99.90
65536;DHT22;52145;49.342;9.116;2023-03-01T01:42:18;-0.30;99.90
65536;DHT22;52145;49.342;9.116;2023-03-01T01:44:47;-0.30;99.90
65536;DHT22;52145;49.342;9.116;2023-03-01T01:47:16;-0.40;99.90
65536;DHT22;52145;49.342;9.116;2023-03-01T01:49:46;-0.30;99.90
65536;DHT22;52145;49.342;9.116;2023-03-01T01:52:23;-0.30;99.90
65536;DHT22;52145;49.342;9.116;2023-03-01T01:57:34;-0.30;99.90
65536;DHT22;52145;49.342;9.116;2023-03-01T02:00:05;-0.30;99.90
65536;DHT22;52145;49.342;9.116;2023-03-01T02:02:31;-0.40;99.90
65536;DHT22;52145;49.342;9.116;2023-03-01T02:07:48;-0.50;99.90
65536;DHT22;52145;49.342;9.116;2023-03-01T02:10:15;-0.50;99.90
65536;DHT22;52145;49.342;9.116;2023-03-01T02:12:41;-0.50;99.90
65536;DHT22;52145;49.342;9.116;2023-03-01T02:15:07;-0.50;99.90
65536;DHT22;52145;49.342;9.116;2023-03-01T02:17:33;-0.60;99.90
65536;DHT22;52145;49.342;9.116;2023-03-01T02:22:28;-0.60;99.90
65536;DHT22;52145;49.342;9.116;2023-03-01T02:28:52;-0.60;99.90
65536;DHT22;52145;49.342;9.116;2023-03-01T02:31:15;-0.60;99.90
65536;DHT22;52145;49.342;9.116;2023-03-01T02:34:00;-0.60;99.90
65536;DHT22;52145;49.342;9.116;2023-03-01T02:36:35;-0.70;99.90
65536;DHT22;52145;49.342;9.116;2023-03-01T02:39:03;-0.70;99.90
65536;DHT22;52145;49.342;9.116;2023-03-01T02:41:31;-0.70;99.90
65536;DHT22;52145;49.342;9.116;2023-03-01T02:43:59;-0.70;99.90
65536;DHT22;52145;49.342;9.116;2023-03-01T02:46:26;-0.70;99.90
65536;DHT22;52145;49.342;9.116;2023-03-01T02:48:54;-0.70;99.90
65536;DHT22;52145;49.342;9.116;2023-03-01T02:51:25;-0.70;99.90
65536;DHT22;52145;49.342;9.116;2023-03-01T02:56:45;-0.80;99.90
65536;DHT22;52145;49.342;9.116;2023-03-01T02:59:15;-0.90;99.90
65536;DHT22;52145;49.342;9.116;2023-03-01T03:01:41;-0.80;99.90
65536;DHT22;52145;49.342;9.116;2023-03-01T03:04:10;-0.80;99.90
65536;DHT22;52145;49.342;9.116;2023-03-01T03:06:36;-0.80;99.90
65536;DHT22;52145;49.342;9.116;2023-03-01T03:09:04;-0.90;99.90
65536;DHT22;52145;49.342;9.116;2023-03-01T03:11:29;-0.80;99.90
65536;DHT22;52145;49.342;9.116;2023-03-01T03:13:56;-0.90;99.90
65536;DHT22;52145;49.342;9.116;2023-03-01T03:16:21;-0.80;99.90
65536;DHT22;52145;49.342;9.116;2023-03-01T03:18:48;-0.90;99.90
65536;DHT22;52145;49.342;9.116;2023-03-01T03:21:14;-0.90;99.90
65536;DHT22;52145;49.342;9.116;2023-03-01T03:23:40;-0.90;99.90
65536;DHT22;52145;49.342;9.116;2023-03-01T03:26:06;-0.90;99.90
65536;DHT22;52145;49.342;9.116;2023-03-01T03:28:32;-0.90;99.90
65536;DHT22;52145;49.342;9.116;2023-03-01T03:30:58;-1.00;99.90
65536;DHT22;52145;49.342;9.116;2023-03-01T03:33:29;-1.00;99.90
65536;DHT22;52145;49.342;9.116;2023-03-01T03:35:55;-1.00;99.90
65536;DHT22;52145;49.342;9.116;2023-03-01T03:38:20;-1.00;99.90
65536;DHT22;52145;49.342;9.116;2023-03-01T03:41:02;-0.90;99.90
65536;DHT22;52145;49.342;9.116;2023-03-01T03:43:28;-0.90;99.90
65536;DHT22;52145;49.342;9.116;2023-03-01T03:45:54;-0.90;99.90
65536;DHT22;52145;49.342;9.116;2023-03-01T03:48:22;-0.90;99.90
65536;DHT22;52145;49.342;9.116;2023-03-01T03:50:50;-1.00;99.90
65536;DHT22;52145;49.342;9.116;2023-03-01T03:53:16;-0.90;99.90
65536;DHT22;52145;49.342;9.116;2023-03-01T03:55:42;-1.00;99.90
65536;DHT22;52145;49.342;9.116;2023-03-01T03:58:10;-1.00;99.90
65536;DHT22;52145;49.342;9.116;2023-03-01T04:00:42;-0.90;99.90
65536;DHT22;52145;49.342;9.116;2023-03-01T04:03:08;-1.00;99.90
65536;DHT22;52145;49.342;9.116;2023-03-01T04:05:35;-0.50;99.90
65536;DHT22;52145;49.342;9.116;2023-03-01T04:08:01;0.00;99.90
65536;DHT22;52145;49.342;9.116;2023-03-01T04:10:32;0.60;99.90
65536;DHT22;52145;49.342;9.116;2023-03-01T04:12:58;1.20;99.90
65536;DHT22;52145;49.342;9.116;2023-03-01T04:15:25;0.90;99.90
65536;DHT22;52145;49.342;9.116;2023-03-01T04:17:52;-0.10;99.90
65536;DHT22;52145;49.342;9.116;2023-03-01T04:20:21;-0.60;99.90
65536;DHT22;52145;49.342;9.116;2023-03-01T04:23:00;-0.70;99.90
65536;DHT22;52145;49.342;9.116;2023-03-01T04:25:39;-0.90;99.90
65536;DHT22;52145;49.342;9.116;2023-03-01T04:28:05;-1.00;99.90
65536;DHT22;52145;49.342;9.116;2023-03-01T04:30:31;-0.90;99.90
65536;DHT22;52145;49.342;9.116;2023-03-01T04:33:07;-1.00;99.90
65536;DHT22;52145;49.342;9.116;2023-03-01T04:35:33;-1.00;99.90
65536;DHT22;52145;49.342;9.116;2023-03-01T04:37:59;-1.10;99.90
65536;DHT22;52145;49.342;9.116;2023-03-01T04:40:25;-1.10;99.90
65536;DHT22;52145;49.342;9.116;2023-03-01T04:42:51;-1.10;99.90
65536;DHT22;52145;49.342;9.116;2023-03-01T04:45:16;-1.20;99.90
65536;DHT22;52145;49.342;9.116;2023-03-01T04:47:43;-1.00;99.90
65536;DHT22;52145;49.342;9.116;2023-03-01T04:50:10;-1.20;99.90
65536;DHT22;52145;49.342;9.116;2023-03-01T04:52:36;-1.20;99.90
65536;DHT22;52145;49.342;9.116;2023-03-01T04:55:02;-1.20;99.90
65536;DHT22;52145;49.342;9.116;2023-03-01T04:57:29;-1.10;99.90
65536;DHT22;52145;49.342;9.116;2023-03-01T04:59:54;-1.10;99.90
65536;DHT22;52145;49.342;9.116;2023-03-01T05:02:20;-1.10;99.90
65536;DHT22;52145;49.342;9.116;2023-03-01T05:04:45;-1.10;99.90
65536;DHT22;52145;49.342;9.116;2023-03-01T05:07:11;-1.10;99.90
65536;DHT22;52145;49.342;9.116;2023-03-01T05:09:38;-1.10;99.90
65536;DHT22;52145;49.342;9.116;2023-03-01T05:12:04;-1.20;99.90
65536;DHT22;52145;49.342;9.116;2023-03-01T05:14:30;-1.20;99.90
65536;DHT22;52145;49.342;9.116;2023-03-01T05:16:55;-1.10;99.90
65536;DHT22;52145;49.342;9.116;2023-03-01T05:19:29;-1.10;99.90
65536;DHT22;52145;49.342;9.116;2023-03-01T05:21:56;-1.10;99.90
65536;DHT22;52145;49.342;9.116;2023-03-01T05:24:30;-1.10;99.90
65536;DHT22;52145;49.342;9.116;2023-03-01T05:26:55;-1.10;99.90
65536;DHT22;52145;49.342;9.116;2023-03-01T05:29:23;-1.10;99.90
65536;DHT22;52145;49.342;9.116;2023-03-01T05:31:57;-1.00;99.90
65536;DHT22;52145;49.342;9.116;2023-03-01T05:34:27;-1.10;99.90
65536;DHT22;52145;49.342;9.116;2023-03-01T05:36:54;-1.10;99.90
65536;DHT22;52145;49.342;9.116;2023-03-01T05:39:21;-1.10;99.90
65536;DHT22;52145;49.342;9.116;2023-03-01T05:41:48;-1.10;99.90
65536;DHT22;52145;49.342;9.116;2023-03-01T05:44:16;-1.10;99.90
65536;DHT22;52145;49.342;9.116;2023-03-01T05:46:42;-1.10;99.90
65536;DHT22;52145;49.342;9.116;2023-03-01T05:49:07;-1.10;99.90
65536;DHT22;52145;49.342;9.116;2023-03-01T07:57:00;1.00;99.90
65536;DHT22;52145;49.342;9.116;2023-03-01T07:59:26;1.00;99.90
65536;DHT22;52145;49.342;9.116;2023-03-01T08:01:55;1.10;99.90
65536;DHT22;52145;49.342;9.116;2023-03-01T08:04:21;1.20;99.90
65536;DHT22;52145;49.342;9.116;2023-03-01T08:06:46;1.20;99.90
65536;DHT22;52145;49.342;9.116;2023-03-01T08:09:12;1.30;99.90
65536;DHT22;52145;49.342;9.116;2023-03-01T08:11:37;1.50;99.90
65536;DHT22;52145;49.342;9.116;2023-03-01T08:14:03;1.50;99.90
65536;DHT22;52145;49.342;9.116;2023-03-01T08:16:29;1.60;99.90
65536;DHT22;52145;49.342;9.116;2023-03-01T08:18:54;1.60;99.90
65536;DHT22;52145;49.342;9.116;2023-03-01T08:21:21;1.70;99.90
65536;DHT22;52145;49.342;9.116;2023-03-01T08:23:47;1.80;99.90
65536;DHT22;52145;49.342;9.116;2023-03-01T08:26:16;1.90;99.90
65536;DHT22;52145;49.342;9.116;2023-03-01T08:28:42;2.10;99.90
65536;DHT22;52145;49.342;9.116;2023-03-01T08:31:15;2.00;99.90
65536;DHT22;52145;49.342;9.116;2023-03-01T08:33:41;2.00;99.90
65536;DHT22;52145;49.342;9.116;2023-03-01T08:36:07;2.10;99.90
65536;DHT22;52145;49.342;9.116;2023-03-01T08:38:33;2.00;99.90
65536;DHT22;52145;49.342;9.116;2023-03-01T08:41:00;2.30;99.90
65536;DHT22;52145;49.342;9.116;2023-03-01T08:43:26;2.40;99.90
65536;DHT22;52145;49.342;9.116;2023-03-01T08:45:51;2.40;99.90
65536;DHT22;52145;49.342;9.116;2023-03-01T08:48:17;2.50;99.90
65536;DHT22;52145;49.342;9.116;2023-03-01T08:50:42;2.60;99.90
65536;DHT22;52145;49.342;9.116;2023-03-01T08:53:08;2.80;99.90
65536;DHT22;52145;49.342;9.116;2023-03-01T08:55:33;2.70;99.90
65536;DHT22;52145;49.342;9.116;2023-03-01T08:57:59;2.80;99.90
65536;DHT22;52145;49.342;9.116;2023-03-01T09:00:24;3.00;99.90
65536;DHT22;52145;49.342;9.116;2023-03-01T09:02:50;3.10;99.90
65536;DHT22;52145;49.342;9.116;2023-03-01T09:05:16;3.10;99.90
65536;DHT22;52145;49.342;9.116;2023-03-01T09:07:41;3.10;99.90
65536;DHT22;52145;49.342;9.116;2023-03-01T09:10:07;3.00;99.90
65536;DHT22;52145;49.342;9.116;2023-03-01T09:12:33;3.20;99.90
65536;DHT22;52145;49.342;9.116;2023-03-01T09:14:58;3.30;99.90
65536;DHT22;52145;49.342;9.116;2023-03-01T09:17:24;3.50;99.90
65536;DHT22;52145;49.342;9.116;2023-03-01T09:19:49;3.40;99.90
65536;DHT22;52145;49.342;9.116;2023-03-01T09:22:15;3.60;99.90
65536;DHT22;52145;49.342;9.116;2023-03-01T09:24:40;3.40;99.90
65536;DHT22;52145;49.342;9.116;2023-03-01T09:27:06;3.60;99.90
65536;DHT22;52145;49.342;9.116;2023-03-01T09:29:38;3.80;99.90
65536;DHT22;52145;49.342;9.116;2023-03-01T09:32:03;3.90;99.90
65536;DHT22;52145;49.342;9.116;2023-03-01T09:34:29;3.90;99.90
65536;DHT22;52145;49.342;9.116;2023-03-01T09:36:54;4.10;99.90
65536;DHT22;52145;49.342;9.116;2023-03-01T09:39:22;4.00;99.90
65536;DHT22;52145;49.342;9.116;2023-03-01T09:44:48;4.30;99.90
65536;DHT22;52145;49.342;9.116;2023-03-01T09:47:23;4.40;99.90
65536;DHT22;52145;49.342;9.116;2023-03-01T09:52:43;4.50;99.90
65536;DHT22;52145;49.342;9.116;2023-03-01T09:55:14;4.60;99.90
65536;DHT22;52145;49.342;9.116;2023-03-01T09:58:41;4.80;99.90
65536;DHT22;52145;49.342;9.116;2023-03-01T10:00:49;5.00;99.90
65536;DHT22;52145;49.342;9.116;2023-03-01T10:03:26;5.10;99.90
65536;DHT22;52145;49.342;9.116;2023-03-01T10:06:01;5.30;99.90
65536;DHT22;52145;49.342;9.116;2023-03-01T10:10:59;5.50;99.90
65536;DHT22;52145;49.342;9.116;2023-03-01T10:15:59;5.80;99.90
65536;DHT22;52145;49.342;9.116;2023-03-01T10:18:29;5.80;99.90
65536;DHT22;52145;49.342;9.116;2023-03-01T10:21:03;5.90;99.90
65536;DHT22;52145;49.342;9.116;2023-03-01T10:23:32;6.10;99.90
65536;DHT22;52145;49.342;9.116;2023-03-01T10:28:54;6.10;99.90
65536;DHT22;52145;49.342;9.116;2023-03-01T10:31:26;6.50;99.90
65536;DHT22;52145;49.342;9.116;2023-03-01T10:33:55;6.80;99.90
65536;DHT22;52145;49.342;9.116;2023-03-01T10:36:23;6.50;99.90
65536;DHT22;52145;49.342;9.116;2023-03-01T10:38:52;6.90;99.90
65536;DHT22;52145;49.342;9.116;2023-03-01T10:41:20;7.20;99.90
65536;DHT22;52145;49.342;9.116;2023-03-01T10:43:51;7.00;99.90
65536;DHT22;52145;49.342;9.116;2023-03-01T10:46:35;7.20;99.90
65536;DHT22;52145;49.342;9.116;2023-03-01T10:49:19;7.30;99.90
65536;DHT22;52145;49.342;9.116;2023-03-01T10:51:47;7.30;99.90
65536;DHT22;52145;49.342;9.116;2023-03-01T10:54:18;7.10;99.90
65536;DHT22;52145;49.342;9.116;2023-03-01T10:56:49;7.60;99.90
65536;DHT22;52145;49.342;9.116;2023-03-01T10:59:31;7.60;99.90
65536;DHT22;52145;49.342;9.116;2023-03-01T11:04:34;7.30;99.90
65536;DHT22;52145;49.342;9.116;2023-03-01T11:07:01;7.60;99.90
65536;DHT22;52145;49.342;9.116;2023-03-01T11:09:31;7.80;99.90
65536;DHT22;52145;49.342;9.116;2023-03-01T11:12:03;8.30;99.90
65536;DHT22;52145;49.342;9.116;2023-03-01T11:14:35;8.30;99.90
65536;DHT22;52145;49.342;9.116;2023-03-01T11:19:32;8.70;99.90
65536;DHT22;52145;49.342;9.116;2023-03-01T11:22:13;8.60;99.90
65536;DHT22;52145;49.342;9.116;2023-03-01T11:24:53;9.30;99.90
65536;DHT22;52145;49.342;9.116;2023-03-01T11:27:25;9.50;99.90
65536;DHT22;52145;49.342;9.116;2023-03-01T11:35:36;9.90;99.90
65536;DHT22;52145;49.342;9.116;2023-03-01T11:38:12;10.70;99.90
65536;DHT22;52145;49.342;9.116;2023-03-01T11:40:54;11.00;99.90
65536;DHT22;52145;49.342;9.116;2023-03-01T11:43:33;10.80;99.90
65536;DHT22;52145;49.342;9.116;2023-03-01T11:49:32;11.20;99.90
65536;DHT22;52145;49.342;9.116;2023-03-01T12:00:05;9.90;99.90
65536;DHT22;52145;49.342;9.116;2023-03-01T12:08:10;11.40;99.80
65536;DHT22;52145;49.342;9.116;2023-03-01T12:10:57;11.40;99.90
65536;DHT22;52145;49.342;9.116;2023-03-01T12:16:18;11.80;99.70
65536;DHT22;52145;49.342;9.116;2023-03-01T12:19:08;11.70;99.80
65536;DHT22;52145;49.342;9.116;2023-03-01T12:21:58;11.20;99.40
65536;DHT22;52145;49.342;9.116;2023-03-01T12:24:55;11.00;99.70
65536;DHT22;52145;49.342;9.116;2023-03-01T12:30:24;11.30;99.40
65536;DHT22;52145;49.342;9.116;2023-03-01T12:33:14;11.00;99.60
65536;DHT22;52145;49.342;9.116;2023-03-01T12:46:42;12.10;98.60
65536;DHT22;52145;49.342;9.116;2023-03-01T12:49:21;12.30;98.20
65536;DHT22;52145;49.342;9.116;2023-03-01T12:54:31;12.20;98.50
65536;DHT22;52145;49.342;9.116;2023-03-01T13:08:18;12.70;98.00
65536;DHT22;52145;49.342;9.116;2023-03-01T13:10:52;12.80;98.10
65536;DHT22;52145;49.342;9.116;2023-03-01T13:13:23;12.90;97.80
65536;DHT22;52145;49.342;9.116;2023-03-01T13:15:49;12.90;98.00
65536;DHT22;52145;49.342;9.116;2023-03-01T13:28:44;13.40;97.60
65536;DHT22;52145;49.342;9.116;2023-03-01T13:33:51;12.20;97.60
65536;DHT22;52145;49.342;9.116;2023-03-01T13:47:14;13.80;97.20
65536;DHT22;52145;49.342;9.116;2023-03-01T13:54:59;14.00;97.10
65536;DHT22;52145;49.342;9.116;2023-03-01T13:57:36;13.60;96.40
65536;DHT22;52145;49.342;9.116;2023-03-01T14:00:04;13.70;96.50
65536;DHT22;52145;49.342;9.116;2023-03-01T14:02:30;13.60;96.80
65536;DHT22;52145;49.342;9.116;2023-03-01T14:04:58;13.50;96.50
65536;DHT22;52145;49.342;9.116;2023-03-01T14:07:24;12.20;97.20
65536;DHT22;52145;49.342;9.116;2023-03-01T14:10:02;12.70;97.00
65536;DHT22;52145;49.342;9.116;2023-03-01T14:15:19;13.60;96.40
65536;DHT22;52145;49.342;9.116;2023-03-01T14:17:59;14.00;96.30
65536;DHT22;52145;49.342;9.116;2023-03-01T14:20:38;13.90;96.10
65536;DHT22;52145;49.342;9.116;2023-03-01T14:23:11;13.80;96.40
65536;DHT22;52145;49.342;9.116;2023-03-01T14:25:38;13.60;96.30
65536;DHT22;52145;49.342;9.116;2023-03-01T14:28:23;13.50;96.40
65536;DHT22;52145;49.342;9.116;2023-03-01T14:31:00;13.20;96.30
65536;DHT22;52145;49.342;9.116;2023-03-01T14:33:34;13.60;96.20
65536;DHT22;52145;49.342;9.116;2023-03-01T14:38:40;13.40;96.20
65536;DHT22;52145;49.342;9.116;2023-03-01T14:41:07;13.00;96.30
65536;DHT22;52145;49.342;9.116;2023-03-01T14:43:34;14.00;96.00
65536;DHT22;52145;49.342;9.116;2023-03-01T14:46:00;13.50;95.90
65536;DHT22;52145;49.342;9.116;2023-03-01T14:48:28;13.00;95.70
65536;DHT22;52145;49.342;9.116;2023-03-01T14:50:55;13.20;95.90
65536;DHT22;52145;49.342;9.116;2023-03-01T14:53:30;12.90;96.20
65536;DHT22;52145;49.342;9.116;2023-03-01T14:55:59;13.70;95.90
65536;DHT22;52145;49.342;9.116;2023-03-01T14:58:27;13.30;95.90
65536;DHT22;52145;49.342;9.116;2023-03-01T15:00:58;12.50;96.30
65536;DHT22;52145;49.342;9.116;2023-03-01T15:03:36;12.20;96.60
65536;DHT22;52145;49.342;9.116;2023-03-01T15:06:06;12.10;96.40
65536;DHT22;52145;49.342;9.116;2023-03-01T15:08:33;12.50;96.80
65536;DHT22;52145;49.342;9.116;2023-03-01T15:13:42;11.60;97.20
65536;DHT22;52145;49.342;9.116;2023-03-01T15:16:22;12.20;96.70
65536;DHT22;52145;49.342;9.116;2023-03-01T15:19:14;12.00;96.90
65536;DHT22;52145;49.342;9.116;2023-03-01T15:21:37;11.60;96.90
65536;DHT22;52145;49.342;9.116;2023-03-01T15:26:49;11.70;97.10
65536;DHT22;52145;49.342;9.116;2023-03-01T15:29:24;12.00;97.10
65536;DHT22;52145;49.342;9.116;2023-03-01T15:32:03;11.00;97.30
65536;DHT22;52145;49.342;9.116;2023-03-01T15:34:34;10.30;98.10
65536;DHT22;52145;49.342;9.116;2023-03-01T15:37:04;9.90;98.30
65536;DHT22;52145;49.342;9.116;2023-03-01T15:39:32;9.80;98.60
65536;DHT22;52145;49.342;9.116;2023-03-01T15:42:10;9.30;98.60
65536;DHT22;52145;49.342;9.116;2023-03-01T15:44:38;9.30;98.70
65536;DHT22;52145;49.342;9.116;2023-03-01T15:47:21;9.00;98.90
65536;DHT22;52145;49.342;9.116;2023-03-01T15:49:47;9.00;99.20
65536;DHT22;52145;49.342;9.116;2023-03-01T15:52:23;9.00;99.30
65536;DHT22;52145;49.342;9.116;2023-03-01T15:55:03;8.70;99.60
65536;DHT22;52145;49.342;9.116;2023-03-01T15:57:29;8.70;99.40
65536;DHT22;52145;49.342;9.116;2023-03-01T15:59:55;8.70;99.80
65536;DHT22;52145;49.342;9.116;2023-03-01T16:02:22;8.60;99.80
65536;DHT22;52145;49.342;9.116;2023-03-01T16:04:47;8.70;99.90
65536;DHT22;52145;49.342;9.116;2023-03-01T16:07:16;8.50;99.90
65536;DHT22;52145;49.342;9.116;2023-03-01T16:09:41;8.50;99.90
65536;DHT22;52145;49.342;9.116;2023-03-01T16:12:14;8.40;99.90
65536;DHT22;52145;49.342;9.116;2023-03-01T16:14:40;8.40;99.90
65536;DHT22;52145;49.342;9.116;2023-03-01T16:17:05;8.30;99.90
65536;DHT22;52145;49.342;9.116;2023-03-01T16:19:31;8.30;99.90
65536;DHT22;52145;49.342;9.116;2023-03-01T16:21:56;8.20;99.90
65536;DHT22;52145;49.342;9.116;2023-03-01T16:24:22;8.20;99.90
65536;DHT22;52145;49.342;9.116;2023-03-01T16:26:47;8.00;99.90
65536;DHT22;52145;49.342;9.116;2023-03-01T16:29:13;7.90;99.90
65536;DHT22;52145;49.342;9.116;2023-03-01T16:31:38;7.90;99.90
65536;DHT22;52145;49.342;9.116;2023-03-01T16:34:04;7.90;99.90
65536;DHT22;52145;49.342;9.116;2023-03-01T16:36:30;7.80;99.90
65536;DHT22;52145;49.342;9.116;2023-03-01T16:38:58;7.70;99.90
65536;DHT22;52145;49.342;9.116;2023-03-01T16:41:27;7.70;99.90
65536;DHT22;52145;49.342;9.116;2023-03-01T16:43:52;7.60;99.90
65536;DHT22;52145;49.342;9.116;2023-03-01T16:46:23;7.50;99.90
65536;DHT22;52145;49.342;9.116;2023-03-01T16:48:50;7.50;99.90
65536;DHT22;52145;49.342;9.116;2023-03-01T16:51:16;7.40;99.90
65536;DHT22;52145;49.342;9.116;2023-03-01T16:53:42;7.40;99.90
65536;DHT22;52145;49.342;9.116;2023-03-01T16:56:10;7.30;99.90
65536;DHT22;52145;49.342;9.116;2023-03-01T16:58:36;7.20;99.90
65536;DHT22;52145;49.342;9.116;2023-03-01T17:01:07;7.10;99.90
65536;DHT22;52145;49.342;9.116;2023-03-01T17:03:33;7.10;99.90
65536;DHT22;52145;49.342;9.116;2023-03-01T17:06:04;7.00;99.90
65536;DHT22;52145;49.342;9.116;2023-03-01T17:08:30;6.90;99.90
65536;DHT22;52145;49.342;9.116;2023-03-01T17:11:08;6.90;99.90
65536;DHT22;52145;49.342;9.116;2023-03-01T17:13:35;6.80;99.90
65536;DHT22;52145;49.342;9.116;2023-03-01T17:16:03;6.80;99.90
65536;DHT22;52145;49.342;9.116;2023-03-01T17:18:29;6.70;99.90
65536;DHT22;52145;49.342;9.116;2023-03-01T17:20:55;6.80;99.90
65536;DHT22;52145;49.342;9.116;2023-03-01T17:23:21;6.80;99.90
65536;DHT22;52145;49.342;9.116;2023-03-01T17:25:46;6.60;99.90
65536;DHT22;52145;49.342;9.116;2023-03-01T17:28:13;6.50;99.90
65536;DHT22;52145;49.342;9.116;2023-03-01T17:30:43;6.50;99.90
65536;DHT22;52145;49.342;9.116;2023-03-01T17:33:10;6.40;99.90
65536;DHT22;52145;49.342;9.116;2023-03-01T17:35:36;6.40;99.90
65536;DHT22;52145;49.342;9.116;2023-03-01T17:38:03;6.20;99.90
65536;DHT22;52145;49.342;9.116;2023-03-01T17:40:29;6.10;99.90
65536;DHT22;52145;49.342;9.116;2023-03-01T17:42:55;6.10;99.90
65536;DHT22;52145;49.342;9.116;2023-03-01T17:45:21;6.10;99.90
65536;DHT22;52145;49.342;9.116;2023-03-01T17:47:47;6.00;99.90
65536;DHT22;52145;49.342;9.116;2023-03-01T17:50:12;6.10;99.90
65536;DHT22;52145;49.342;9.116;2023-03-01T17:52:38;6.10;99.90
65536;DHT22;52145;49.342;9.116;2023-03-01T17:55:06;6.10;99.90
65536;DHT22;52145;49.342;9.116;2023-03-01T17:57:32;6.00;99.90
65536;DHT22;52145;49.342;9.116;2023-03-01T17:59:58;6.00;99.90
65536;DHT22;52145;49.342;9.116;2023-03-01T18:02:23;5.90;99.90
65536;DHT22;52145;49.342;9.116;2023-03-01T18:04:51;5.80;99.90
65536;DHT22;52145;49.342;9.116;2023-03-01T18:07:18;5.70;99.90
65536;DHT22;52145;49.342;9.116;2023-03-01T18:09:43;5.60;99.90
65536;DHT22;52145;49.342;9.116;2023-03-01T18:12:09;5.50;99.90
65536;DHT22;52145;49.342;9.116;2023-03-01T18:14:35;5.30;99.90
65536;DHT22;52145;49.342;9.116;2023-03-01T18:17:01;5.20;99.90
65536;DHT22;52145;49.342;9.116;2023-03-01T18:19:30;5.20;99.90
65536;DHT22;52145;49.342;9.116;2023-03-01T18:21:56;5.20;99.90
65536;DHT22;52145;49.342;9.116;2023-03-01T18:24:21;5.10;99.90
65536;DHT22;52145;49.342;9.116;2023-03-01T18:26:47;5.00;99.90
65536;DHT22;52145;49.342;9.116;2023-03-01T18:29:13;4.90;99.90
65536;DHT22;52145;49.342;9.116;2023-03-01T18:31:38;4.80;99.90
65536;DHT22;52145;49.342;9.116;2023-03-01T18:34:04;4.90;99.90
65536;DHT22;52145;49.342;9.116;2023-03-01T18:36:32;4.90;99.90
65536;DHT22;52145;49.342;9.116;2023-03-01T18:38:58;4.90;99.90
65536;DHT22;52145;49.342;9.116;2023-03-01T18:41:26;4.90;99.90
65536;DHT22;52145;49.342;9.116;2023-03-01T18:43:53;4.90;99.90
65536;DHT22;52145;49.342;9.116;2023-03-01T18:46:20;5.00;99.90
65536;DHT22;52145;49.342;9.116;2023-03-01T18:48:46;5.00;99.90
65536;DHT22;52145;49.342;9.116;2023-03-01T18:51:24;5.00;99.90
65536;DHT22;52145;49.342;9.116;2023-03-01T18:53:50;4.90;99.90
65536;DHT22;52145;49.342;9.116;2023-03-01T18:56:16;5.00;99.90
65536;DHT22;52145;49.342;9.116;2023-03-01T18:58:42;4.90;99.90
65536;DHT22;52145;49.342;9.116;2023-03-01T19:01:18;4.90;99.90
65536;DHT22;52145;49.342;9.116;2023-03-01T19:03:44;4.90;99.90
65536;DHT22;52145;49.342;9.116;2023-03-01T19:06:09;4.80;99.90
65536;DHT22;52145;49.342;9.116;2023-03-01T19:08:36;4.90;99.90
65536;DHT22;52145;49.342;9.116;2023-03-01T19:11:04;4.80;99.90
65536;DHT22;52145;49.342;9.116;2023-03-01T19:13:30;4.80;99.90
65536;DHT22;52145;49.342;9.116;2023-03-01T19:16:08;4.80;99.90
65536;DHT22;52145;49.342;9.116;2023-03-01T19:18:35;4.70;99.90
65536;DHT22;52145;49.342;9.116;2023-03-01T19:21:02;4.80;99.90
65536;DHT22;52145;49.342;9.116;2023-03-01T19:23:29;4.80;99.90
65536;DHT22;52145;49.342;9.116;2023-03-01T19:26:03;4.70;99.90
65536;DHT22;52145;49.342;9.116;2023-03-01T19:28:29;4.70;99.90
65536;DHT22;52145;49.342;9.116;2023-03-01T19:31:03;4.70;99.90
65536;DHT22;52145;49.342;9.116;2023-03-01T19:33:30;4.70;99.90
65536;DHT22;52145;49.342;9.116;2023-03-01T19:35:57;4.70;99.90
65536;DHT22;52145;49.342;9.116;2023-03-01T19:38:23;4.60;99.90
65536;DHT22;52145;49.342;9.116;2023-03-01T19:40:49;4.70;99.90
65536;DHT22;52145;49.342;9.116;2023-03-01T19:43:15;4.70;99.90
65536;DHT22;52145;49.342;9.116;2023-03-01T19:45:40;4.60;99.90
65536;DHT22;52145;49.342;9.116;2023-03-01T19:48:06;4.60;99.90
65536;DHT22;52145;49.342;9.116;2023-03-01T19:50:32;4.70;99.90
65536;DHT22;52145;49.342;9.116;2023-03-01T19:52:57;4.60;99.90
65536;DHT22;52145;49.342;9.116;2023-03-01T19:55:23;4.60;99.90
65536;DHT22;52145;49.342;9.116;2023-03-01T19:57:48;4.60;99.90
65536;DHT22;52145;49.342;9.116;2023-03-01T20:00:14;4.50;99.90
65536;DHT22;52145;49.342;9.116;2023-03-01T20:02:41;4.50;99.90